Flugplatz Berlin-Schönefeld International

Bericht für EDDB

vom 24.08. um 05:50 UTC

Wind 3 kt aus 90°

Sichtweite 10 km oder mehr

gute Sicht, keine Wolken < 5000 ft, keine CB, keine Wettererscheinungen (CAVOK)

Temperatur 12.0°C

Taupunkt 11.0°C

Luftfeuchtigkeit 94%

Luftdruck 1015 hPa

keine wesentliche Wetteränderung innerhalb den nächsten 2 Stunden zu erwarten

EDDB 240550Z 09003KT 060V130 CAVOK 12/11 Q1015 NOSIG

Prognose für EDDB

vom 24.08. um 05:00 UTC

Zwischen 06:00 UTC und 09:00 UTC

Wind 5 kt aus 140°

Sichtweite 10 km oder mehr

keine signifikanten Wettererscheinungen

keine Wolken


Zwischen 09:00 und 12:00 UTC übergehend zu

Wind 8 kt aus 260°

Sichtweite 10 km oder mehr

keine signifikanten Wettererscheinungen

keine Wolken

TAF EDDB 240500Z 2406/2506 14005KT CAVOK BECMG 2409/2412 26008KT
Impressum